createdAt,value
2022-12-16T00:01:13.847Z,100272.25
2022-12-16T00:03:44.253Z,100278.31
2022-12-16T00:06:12.062Z,100283.34
2022-12-16T00:08:40.977Z,100281.28
2022-12-16T00:11:09.768Z,100290.09
2022-12-16T00:13:40.275Z,100290.81
2022-12-16T00:16:11.325Z,100291.59
2022-12-16T00:18:39.280Z,100293.00
2022-12-16T00:21:07.300Z,100285.03
2022-12-16T00:23:36.507Z,100294.78
2022-12-16T00:26:04.438Z,100305.59
2022-12-16T00:28:32.377Z,100308.13
2022-12-16T00:31:00.026Z,100297.13
2022-12-16T00:33:29.622Z,100300.31
2022-12-16T00:35:58.139Z,100295.06
2022-12-16T00:38:27.582Z,100292.81
2022-12-16T00:40:55.287Z,100298.91
2022-12-16T00:43:22.984Z,100279.44
2022-12-16T00:45:51.979Z,100298.13
2022-12-16T00:48:22.864Z,100299.56
2022-12-16T00:50:52.939Z,100317.28
2022-12-16T00:53:23.873Z,100298.81
2022-12-16T00:55:51.799Z,100305.41
2022-12-16T00:58:19.642Z,100298.97
2022-12-16T01:00:47.427Z,100287.19
2022-12-16T01:03:21.080Z,100299.31
2022-12-16T01:05:49.201Z,100309.09
2022-12-16T01:08:18.203Z,100309.28
2022-12-16T01:10:51.639Z,100296.78
2022-12-16T01:13:20.161Z,100295.91
2022-12-16T01:15:47.980Z,100289.47
2022-12-16T01:18:16.053Z,100304.47
2022-12-16T01:20:43.820Z,100313.09
2022-12-16T01:23:11.707Z,100295.47
2022-12-16T01:25:40.695Z,100321.88
2022-12-16T01:28:08.457Z,100321.41
2022-12-16T01:30:36.176Z,100305.09
2022-12-16T01:33:03.917Z,100313.25
2022-12-16T01:38:19.562Z,100329.16
2022-12-16T01:40:48.653Z,100331.50
2022-12-16T01:43:26.410Z,100333.56
2022-12-16T01:45:55.513Z,100334.50
2022-12-16T01:48:31.646Z,100349.00
2022-12-16T01:51:03.112Z,100335.56
2022-12-16T01:53:31.363Z,100348.34
2022-12-16T01:56:01.389Z,100335.56
2022-12-16T01:58:31.615Z,100342.91
2022-12-16T02:00:59.642Z,100336.25
2022-12-16T02:03:27.443Z,100340.56
2022-12-16T02:05:55.193Z,100362.03
2022-12-16T02:08:23.179Z,100333.94
2022-12-16T02:11:16.172Z,100342.28
2022-12-16T02:13:59.429Z,100341.34
2022-12-16T02:16:31.783Z,100354.53
2022-12-16T02:19:04.060Z,100353.53
2022-12-16T02:21:48.767Z,100360.22
2022-12-16T02:24:47.735Z,100355.09
2022-12-16T02:27:47.363Z,100358.59
2022-12-16T02:30:42.170Z,100366.22
2022-12-16T02:33:18.426Z,100363.69
2022-12-16T02:35:49.320Z,100360.16
2022-12-16T02:38:23.578Z,100356.69
2022-12-16T02:40:54.072Z,100349.03
2022-12-16T02:43:34.999Z,100362.41
2022-12-16T02:46:05.424Z,100359.50
2022-12-16T02:48:33.138Z,100358.69
2022-12-16T02:51:01.034Z,100357.75
2022-12-16T02:53:29.537Z,100353.81
2022-12-16T02:56:05.131Z,100346.28
2022-12-16T02:58:37.485Z,100364.38
2022-12-16T03:01:11.745Z,100354.44
2022-12-16T03:03:45.877Z,100368.78
2022-12-16T03:06:15.299Z,100365.66
2022-12-16T03:08:45.905Z,100373.06
2022-12-16T03:11:13.918Z,100371.16
2022-12-16T03:13:44.647Z,100368.53
2022-12-16T03:16:15.709Z,100381.09
2022-12-16T03:18:45.680Z,100384.69
2022-12-16T03:21:15.351Z,100377.97
2022-12-16T03:23:46.822Z,100398.03
2022-12-16T03:26:17.382Z,100392.94
2022-12-16T03:28:47.196Z,100410.63
2022-12-16T03:31:21.010Z,100401.50
2022-12-16T03:33:51.254Z,100398.00
2022-12-16T03:36:22.495Z,100391.72
2022-12-16T03:38:51.529Z,100401.56
2022-12-16T03:41:21.729Z,100407.53
2022-12-16T03:43:50.007Z,100406.69
2022-12-16T03:46:19.588Z,100418.63
2022-12-16T03:48:48.915Z,100416.81
2022-12-16T03:51:16.980Z,100421.81
2022-12-16T03:53:44.817Z,100406.22
2022-12-16T03:56:12.718Z,100398.34
2022-12-16T03:58:40.941Z,100399.91
2022-12-16T04:01:10.410Z,100395.22
2022-12-16T04:03:39.984Z,100412.03
2022-12-16T04:06:08.431Z,100424.91
2022-12-16T04:08:36.129Z,100418.75
2022-12-16T04:11:21.344Z,100421.38
2022-12-16T04:14:06.721Z,100413.94
2022-12-16T04:16:52.126Z,100411.56
2022-12-16T04:19:41.916Z,100421.22
2022-12-16T04:22:31.264Z,100415.63
2022-12-16T04:25:02.582Z,100427.91
2022-12-16T04:27:30.312Z,100416.97
2022-12-16T04:30:15.757Z,100418.13
2022-12-16T04:33:03.597Z,100429.59
2022-12-16T04:35:50.365Z,100433.94
2022-12-16T04:38:35.253Z,100432.81
2022-12-16T04:41:20.743Z,100424.69
2022-12-16T04:44:14.482Z,100434.09
2022-12-16T04:46:56.145Z,100451.56
2022-12-16T04:49:41.601Z,100432.69
2022-12-16T04:52:28.471Z,100432.56
2022-12-16T04:55:13.605Z,100438.84
2022-12-16T04:57:58.890Z,100435.84
2022-12-16T05:00:44.058Z,100429.84
2022-12-16T05:03:30.371Z,100429.66
2022-12-16T05:06:15.607Z,100440.56
2022-12-16T05:09:02.154Z,100444.41
2022-12-16T05:11:50.007Z,100439.03
2022-12-16T05:14:35.334Z,100442.88
2022-12-16T05:17:20.691Z,100445.50
2022-12-16T05:20:06.109Z,100450.16
2022-12-16T05:22:51.276Z,100457.47
2022-12-16T05:25:37.887Z,100459.53
2022-12-16T05:28:23.312Z,100436.66
2022-12-16T05:31:08.766Z,100448.78
2022-12-16T05:33:54.160Z,100456.94
2022-12-16T05:36:39.557Z,100460.00
2022-12-16T05:39:24.987Z,100457.31
2022-12-16T05:42:11.564Z,100455.16
2022-12-16T05:44:56.921Z,100458.53
2022-12-16T05:47:42.293Z,100457.53
2022-12-16T05:50:28.137Z,100453.28
2022-12-16T05:53:14.236Z,100447.72
2022-12-16T05:56:00.052Z,100460.31
2022-12-16T05:58:47.601Z,100460.91
2022-12-16T06:01:33.680Z,100468.97
2022-12-16T06:04:18.863Z,100469.03
2022-12-16T06:07:04.327Z,100471.63
2022-12-16T06:09:56.163Z,100486.75
2022-12-16T06:12:41.993Z,100493.22
2022-12-16T06:15:29.176Z,100494.69
2022-12-16T06:18:14.614Z,100502.47
2022-12-16T06:21:14.501Z,100499.81
2022-12-16T06:23:59.836Z,100496.16
2022-12-16T06:26:44.839Z,100508.03
2022-12-16T06:29:30.100Z,100504.09
2022-12-16T06:32:16.913Z,100513.50
2022-12-16T06:35:02.132Z,100511.84
2022-12-16T06:37:47.573Z,100519.19
2022-12-16T06:40:33.111Z,100522.69
2022-12-16T06:43:18.455Z,100524.06
2022-12-16T06:46:03.841Z,100532.41
2022-12-16T06:48:50.452Z,100518.19
2022-12-16T06:51:35.881Z,100521.72
2022-12-16T06:54:21.283Z,100518.31
2022-12-16T06:57:06.684Z,100526.88
2022-12-16T06:59:52.061Z,100527.53
2022-12-16T07:02:37.418Z,100541.72
2022-12-16T07:05:29.988Z,100543.59
2022-12-16T07:08:15.496Z,100540.69
2022-12-16T07:11:15.292Z,100552.69
2022-12-16T07:14:01.773Z,100555.72
2022-12-16T07:16:47.304Z,100572.34
2022-12-16T07:19:32.433Z,100570.06
2022-12-16T07:22:19.124Z,100571.97
2022-12-16T07:25:04.508Z,100571.97
2022-12-16T07:27:49.820Z,100580.41
2022-12-16T07:30:35.111Z,100593.03
2022-12-16T07:33:20.360Z,100597.25
2022-12-16T07:36:05.863Z,100599.03
2022-12-16T07:38:52.622Z,100605.00
2022-12-16T07:41:37.831Z,100600.25
2022-12-16T07:44:23.175Z,100617.25
2022-12-16T07:47:08.536Z,100615.47
2022-12-16T07:49:56.126Z,100618.50
2022-12-16T07:52:41.729Z,100623.63
2022-12-16T07:55:28.409Z,100640.09
2022-12-16T07:58:13.782Z,100632.66
2022-12-16T08:00:59.294Z,100646.22
2022-12-16T08:03:46.856Z,100644.31
2022-12-16T08:06:35.932Z,100640.53
2022-12-16T08:09:24.128Z,100638.81
2022-12-16T08:12:10.727Z,100658.47
2022-12-16T08:14:56.110Z,100663.53
2022-12-16T08:17:41.379Z,100675.66
2022-12-16T08:20:26.921Z,100678.06
2022-12-16T08:23:27.081Z,100677.88
2022-12-16T08:26:12.049Z,100682.34
2022-12-16T08:29:09.332Z,100687.34
2022-12-16T08:31:59.118Z,100690.69
2022-12-16T08:34:44.524Z,100688.91
2022-12-16T08:37:26.128Z,100677.72
2022-12-16T08:40:34.412Z,100678.66
2022-12-16T08:43:16.971Z,100701.41
2022-12-16T08:46:03.790Z,100693.38
2022-12-16T08:48:49.048Z,100697.88
2022-12-16T08:51:34.546Z,100704.72
2022-12-16T08:54:19.921Z,100714.69
2022-12-16T08:57:05.273Z,100721.63
2022-12-16T08:59:50.601Z,100722.66
2022-12-16T09:02:37.849Z,100716.47
2022-12-16T09:05:23.815Z,100726.81
2022-12-16T09:08:09.251Z,100733.75
2022-12-16T09:10:55.221Z,100742.09
2022-12-16T09:13:40.520Z,100735.00
2022-12-16T09:16:26.572Z,100753.00
2022-12-16T09:19:13.174Z,100751.31
2022-12-16T09:21:58.440Z,100748.84
2022-12-16T09:24:43.753Z,100753.78
2022-12-16T09:27:29.165Z,100750.31
2022-12-16T09:30:14.481Z,100759.47
2022-12-16T09:33:00.153Z,100757.34
2022-12-16T09:35:46.739Z,100759.91
2022-12-16T09:38:32.144Z,100764.59
2022-12-16T09:41:47.552Z,100771.53
2022-12-16T09:44:39.765Z,100779.44
2022-12-16T09:47:31.250Z,100785.38
2022-12-16T09:50:16.436Z,100792.81
2022-12-16T09:53:04.656Z,100795.41
2022-12-16T09:55:51.676Z,100796.28
2022-12-16T09:58:39.484Z,100804.41
2022-12-16T10:01:25.012Z,100804.38
2022-12-16T10:04:10.395Z,100798.53
2022-12-16T10:07:00.479Z,100806.59
2022-12-16T10:09:49.408Z,100808.91
2022-12-16T10:12:43.365Z,100811.47
2022-12-16T10:15:35.831Z,100819.25
2022-12-16T10:18:24.633Z,100811.09
2022-12-16T10:21:10.807Z,100827.63
2022-12-16T10:24:01.407Z,100827.06
2022-12-16T10:27:03.917Z,100829.88
2022-12-16T10:29:50.219Z,100837.09
2022-12-16T10:32:38.598Z,100841.06
2022-12-16T10:35:37.064Z,100841.13
2022-12-16T10:38:24.873Z,100842.44
2022-12-16T10:41:10.168Z,100845.34
2022-12-16T10:43:59.308Z,100857.13
2022-12-16T10:46:47.160Z,100853.16
2022-12-16T10:49:34.635Z,100850.06
2022-12-16T10:52:20.939Z,100851.44
2022-12-16T10:55:13.899Z,100842.53
2022-12-16T10:58:09.906Z,100849.81
2022-12-16T11:01:02.735Z,100848.63
2022-12-16T11:03:49.725Z,100834.56
2022-12-16T11:06:38.759Z,100839.41
2022-12-16T11:09:44.411Z,100843.47
2022-12-16T11:12:38.985Z,100845.03
2022-12-16T11:15:41.652Z,100858.56
2022-12-16T11:18:32.745Z,100853.91
2022-12-16T11:21:39.487Z,100860.28
2022-12-16T11:24:33.471Z,100852.94
2022-12-16T11:27:19.885Z,100849.50
2022-12-16T11:30:09.449Z,100847.47
2022-12-16T11:32:55.940Z,100857.38
2022-12-16T11:35:45.652Z,100861.00
2022-12-16T11:38:37.566Z,100845.47
2022-12-16T11:41:19.578Z,100867.25
2022-12-16T11:44:07.800Z,100852.59
2022-12-16T11:46:53.316Z,100857.47
2022-12-16T11:49:45.086Z,100868.16
2022-12-16T11:52:37.290Z,100870.75
2022-12-16T11:56:02.788Z,100868.59
2022-12-16T11:58:40.077Z,100867.16
2022-12-16T12:01:31.367Z,100855.97
2022-12-16T12:04:16.948Z,100872.38
2022-12-16T12:07:16.172Z,100876.97
2022-12-16T12:10:07.966Z,100876.19
2022-12-16T12:12:58.772Z,100885.03
2022-12-16T12:15:51.249Z,100868.31
2022-12-16T12:18:43.128Z,100874.75
2022-12-16T12:21:34.368Z,100886.25
2022-12-16T12:24:26.744Z,100882.84
2022-12-16T12:27:20.014Z,100888.47
2022-12-16T12:30:18.080Z,100894.34
2022-12-16T12:33:12.093Z,100891.31
2022-12-16T12:36:09.431Z,100894.78
2022-12-16T12:39:00.383Z,100899.72
2022-12-16T12:41:47.493Z,100890.09
2022-12-16T12:44:48.636Z,100908.34
2022-12-16T12:47:36.037Z,100906.75
2022-12-16T12:50:26.896Z,100894.44
2022-12-16T12:53:28.648Z,100893.59
2022-12-16T12:56:21.022Z,100895.63
2022-12-16T12:59:13.726Z,100902.09
2022-12-16T13:02:07.417Z,100917.41
2022-12-16T13:04:52.747Z,100892.34
2022-12-16T13:07:37.941Z,100904.19
2022-12-16T13:10:59.456Z,100907.44
2022-12-16T13:13:51.004Z,100917.56
2022-12-16T13:17:25.983Z,100915.50
2022-12-16T13:20:16.796Z,100919.66
2022-12-16T13:23:03.053Z,100926.84
2022-12-16T13:25:52.382Z,100930.25
2022-12-16T13:28:43.335Z,100933.66
2022-12-16T13:31:28.866Z,100931.91
2022-12-16T13:34:17.484Z,100936.97
2022-12-16T13:37:04.247Z,100931.50
2022-12-16T13:39:48.832Z,100940.25
2022-12-16T13:42:55.790Z,100937.56
2022-12-16T13:45:50.356Z,100945.34
2022-12-16T13:48:46.017Z,100950.84
2022-12-16T13:52:05.048Z,100950.09
2022-12-16T13:54:54.793Z,100932.88
2022-12-16T13:57:42.590Z,100952.81
2022-12-16T14:00:36.903Z,100968.13
2022-12-16T14:03:23.777Z,100967.78
2022-12-16T14:06:09.733Z,100966.22
2022-12-16T14:08:59.778Z,100964.94
2022-12-16T14:11:55.973Z,100965.69
2022-12-16T14:14:42.134Z,100968.16
2022-12-16T14:17:33.954Z,100982.38
2022-12-16T14:20:22.834Z,100993.59
2022-12-16T14:23:17.874Z,101002.66
2022-12-16T14:26:23.540Z,101007.25
2022-12-16T14:29:10.024Z,101008.97
2022-12-16T14:31:57.076Z,101016.41
2022-12-16T14:34:43.598Z,101015.75
2022-12-16T14:37:31.868Z,101014.34
2022-12-16T14:40:17.178Z,101005.38
2022-12-16T14:43:13.947Z,101008.47
2022-12-16T14:46:07.321Z,101016.22
2022-12-16T14:48:53.793Z,101026.53
2022-12-16T14:51:43.784Z,101026.00
2022-12-16T14:54:43.994Z,101025.72
2022-12-16T14:57:31.751Z,101036.03
2022-12-16T15:00:22.727Z,101034.16
2022-12-16T15:03:10.351Z,101045.13
2022-12-16T15:05:56.340Z,101037.66
2022-12-16T15:08:42.107Z,101038.28
2022-12-16T15:11:34.920Z,101037.06
2022-12-16T15:14:21.063Z,101035.50
2022-12-16T15:17:08.662Z,101038.13
2022-12-16T15:20:03.149Z,101048.59
2022-12-16T15:22:48.766Z,101044.03
2022-12-16T15:25:39.340Z,101059.47
2022-12-16T15:28:41.619Z,101067.16
2022-12-16T15:31:34.256Z,101070.66
2022-12-16T15:34:54.744Z,101094.31
2022-12-16T15:37:43.636Z,101087.81
2022-12-16T15:40:40.768Z,101093.97
2022-12-16T15:43:39.221Z,101102.13
2022-12-16T15:46:24.847Z,101109.25
2022-12-16T15:49:10.800Z,101105.28
2022-12-16T15:52:02.584Z,101107.44
2022-12-16T15:54:49.195Z,101104.59
2022-12-16T15:57:45.437Z,101109.75
2022-12-16T16:00:47.343Z,101123.84
2022-12-16T16:03:37.824Z,101125.66
2022-12-16T16:06:24.255Z,101133.03
2022-12-16T16:09:09.758Z,101124.16
2022-12-16T16:11:56.372Z,101125.00
2022-12-16T16:14:41.770Z,101115.97
2022-12-16T16:17:35.397Z,101128.19
2022-12-16T16:20:20.736Z,101144.53
2022-12-16T16:23:05.898Z,101137.88
2022-12-16T16:25:51.087Z,101132.16
2022-12-16T16:28:37.531Z,101149.00
2022-12-16T16:31:22.981Z,101151.13
2022-12-16T16:34:08.511Z,101155.19
2022-12-16T16:36:53.968Z,101156.78
2022-12-16T16:39:40.371Z,101148.69
2022-12-16T16:42:26.775Z,101144.91
2022-12-16T16:45:13.474Z,101161.69
2022-12-16T16:47:59.010Z,101164.88
2022-12-16T16:50:44.195Z,101163.16
2022-12-16T16:53:33.043Z,101167.97
2022-12-16T16:56:20.326Z,101168.44
2022-12-16T16:59:05.911Z,101174.50
2022-12-16T17:01:52.679Z,101176.69
2022-12-16T17:04:37.889Z,101178.00
2022-12-16T17:07:23.101Z,101187.72
2022-12-16T17:10:08.549Z,101198.31
2022-12-16T17:12:57.493Z,101185.28
2022-12-16T17:15:48.861Z,101190.06
2022-12-16T17:18:36.545Z,101194.44
2022-12-16T17:21:23.185Z,101194.56
2022-12-16T17:24:08.539Z,101206.00
2022-12-16T17:26:53.892Z,101210.00
2022-12-16T17:29:41.152Z,101217.00
2022-12-16T17:32:27.071Z,101208.78
2022-12-16T17:35:13.661Z,101217.31
2022-12-16T17:37:58.949Z,101225.56
2022-12-16T17:40:44.236Z,101225.56
2022-12-16T17:43:29.737Z,101219.50
2022-12-16T17:46:16.908Z,101226.03
2022-12-16T17:49:02.399Z,101219.59
2022-12-16T17:51:49.125Z,101219.41
2022-12-16T17:54:34.470Z,101220.19
2022-12-16T17:57:19.967Z,101213.91
2022-12-16T18:00:05.285Z,101243.13
2022-12-16T18:02:50.877Z,101242.88
2022-12-16T18:05:41.263Z,101239.75
2022-12-16T18:08:31.090Z,101252.28
2022-12-16T18:11:17.000Z,101255.78
2022-12-16T18:14:02.344Z,101263.59
2022-12-16T18:16:47.764Z,101254.63
2022-12-16T18:19:34.438Z,101253.13
2022-12-16T18:22:20.302Z,101257.38
2022-12-16T18:25:06.888Z,101263.78
2022-12-16T18:28:03.748Z,101264.34
2022-12-16T18:30:49.096Z,101277.94
2022-12-16T18:33:34.823Z,101280.06
2022-12-16T18:36:20.007Z,101283.72
2022-12-16T18:39:05.363Z,101286.00
2022-12-16T18:41:51.221Z,101292.28
2022-12-16T18:44:36.575Z,101290.59
2022-12-16T18:47:22.070Z,101297.38
2022-12-16T18:50:07.300Z,101295.66
2022-12-16T18:52:52.624Z,101300.72
2022-12-16T18:55:37.761Z,101297.88
2022-12-16T19:01:30.770Z,101318.69
2022-12-16T19:04:16.767Z,101321.00
2022-12-16T19:07:02.120Z,101317.81
2022-12-16T19:09:47.549Z,101312.69
2022-12-16T19:12:32.784Z,101314.47
2022-12-16T19:15:19.404Z,101310.78
2022-12-16T19:18:04.865Z,101311.53
2022-12-16T19:20:50.124Z,101311.75
2022-12-16T19:23:35.904Z,101317.91
2022-12-16T19:26:21.360Z,101320.97
2022-12-16T19:29:08.989Z,101313.66
2022-12-16T19:31:56.195Z,101314.53
2022-12-16T19:34:41.766Z,101307.09
2022-12-16T19:37:27.143Z,101319.69
2022-12-16T19:40:12.487Z,101323.13
2022-12-16T19:42:57.747Z,101320.00
2022-12-16T19:45:43.205Z,101317.00
2022-12-16T19:48:29.875Z,101328.84
2022-12-16T19:51:15.803Z,101323.88
2022-12-16T19:54:01.664Z,101339.94
2022-12-16T19:56:47.453Z,101345.13
2022-12-16T19:59:32.842Z,101350.94
2022-12-16T20:02:18.313Z,101350.44
2022-12-16T20:05:04.733Z,101362.16
2022-12-16T20:07:50.402Z,101330.97
2022-12-16T20:10:36.931Z,101346.78
2022-12-16T20:13:30.088Z,101355.66
2022-12-16T20:16:19.557Z,101346.34
2022-12-16T20:19:05.021Z,101353.00
2022-12-16T20:21:56.392Z,101360.41
2022-12-16T20:24:42.217Z,101359.13
2022-12-16T20:27:28.047Z,101344.00
2022-12-16T20:30:13.424Z,101353.31
2022-12-16T20:33:04.119Z,101361.63
2022-12-16T20:35:49.595Z,101360.81
2022-12-16T20:38:36.411Z,101370.94
2022-12-16T20:41:22.904Z,101358.22
2022-12-16T20:44:08.364Z,101367.16
2022-12-16T20:49:59.671Z,101386.00
2022-12-16T20:52:44.840Z,101395.28
2022-12-16T20:55:31.597Z,101405.88
2022-12-16T20:58:17.030Z,101406.41
2022-12-16T21:01:02.153Z,101406.56
2022-12-16T21:03:47.344Z,101403.63
2022-12-16T21:06:32.485Z,101409.50
2022-12-16T21:09:17.962Z,101408.72
2022-12-16T21:12:04.419Z,101404.56
2022-12-16T21:14:49.883Z,101412.25
2022-12-16T21:17:35.198Z,101394.25
2022-12-16T21:20:20.417Z,101416.78
2022-12-16T21:23:05.993Z,101411.41
2022-12-16T21:25:51.200Z,101401.53
2022-12-16T21:28:38.453Z,101412.25
2022-12-16T21:31:23.983Z,101415.84
2022-12-16T21:34:11.189Z,101420.28
2022-12-16T21:36:56.702Z,101429.50
2022-12-16T21:39:42.120Z,101437.38
2022-12-16T21:42:33.152Z,101434.13
2022-12-16T21:45:21.929Z,101418.53
2022-12-16T21:48:07.357Z,101417.59
2022-12-16T21:50:52.631Z,101429.81
2022-12-16T21:53:39.026Z,101444.19
2022-12-16T21:56:24.297Z,101432.91
2022-12-16T21:59:09.537Z,101449.66
2022-12-16T22:01:56.522Z,101453.16
2022-12-16T22:04:42.127Z,101449.78
2022-12-16T22:07:27.432Z,101458.22
2022-12-16T22:10:12.800Z,101459.84
2022-12-16T22:12:58.052Z,101460.91
2022-12-16T22:15:45.720Z,101447.19
2022-12-16T22:18:32.473Z,101436.38
2022-12-16T22:21:19.260Z,101442.47
2022-12-16T22:24:04.761Z,101451.31
2022-12-16T22:26:50.142Z,101465.63
2022-12-16T22:29:35.660Z,101469.25
2022-12-16T22:32:20.809Z,101481.69
2022-12-16T22:35:07.424Z,101481.56
2022-12-16T22:37:52.814Z,101471.94
2022-12-16T22:40:41.684Z,101470.66
2022-12-16T22:43:26.982Z,101474.06
2022-12-16T22:46:17.970Z,101464.16
2022-12-16T22:49:05.173Z,101464.34
2022-12-16T22:51:52.359Z,101489.06
2022-12-16T22:54:39.145Z,101494.16
2022-12-16T22:57:24.436Z,101495.03
2022-12-16T23:00:18.418Z,101496.09
2022-12-16T23:03:03.903Z,101500.19
2022-12-16T23:05:49.241Z,101505.38
2022-12-16T23:08:35.993Z,101501.03
2022-12-16T23:11:21.259Z,101504.75
2022-12-16T23:14:06.582Z,101493.03
2022-12-16T23:16:51.827Z,101494.53
2022-12-16T23:19:38.549Z,101508.69
2022-12-16T23:22:23.923Z,101505.63
2022-12-16T23:25:10.591Z,101509.81
2022-12-16T23:27:55.946Z,101499.56
2022-12-16T23:30:42.311Z,101509.06
2022-12-16T23:33:27.665Z,101515.88
2022-12-16T23:36:13.121Z,101512.13
2022-12-16T23:38:58.599Z,101510.53
2022-12-16T23:41:45.208Z,101508.91
2022-12-16T23:44:30.709Z,101514.19
2022-12-16T23:47:15.976Z,101515.72
2022-12-16T23:50:01.328Z,101518.34
2022-12-16T23:52:46.730Z,101507.34
2022-12-16T23:55:31.943Z,101516.72
2022-12-16T23:58:19.575Z,101518.34
